sensor_id;sensor_type;location;lat;lon;timestamp;temperature;humidity
22852;DHT22;11592;45.460;9.240;2023-04-24T00:01:05;15.70;99.90
22852;DHT22;11592;45.460;9.240;2023-04-24T00:03:34;15.70;99.90
22852;DHT22;11592;45.460;9.240;2023-04-24T00:06:01;15.80;99.90
22852;DHT22;11592;45.460;9.240;2023-04-24T00:08:29;15.70;99.90
22852;DHT22;11592;45.460;9.240;2023-04-24T00:10:56;15.70;99.90
22852;DHT22;11592;45.460;9.240;2023-04-24T00:13:23;15.70;99.90
22852;DHT22;11592;45.460;9.240;2023-04-24T00:15:49;15.70;99.90
22852;DHT22;11592;45.460;9.240;2023-04-24T00:18:17;15.60;99.90
22852;DHT22;11592;45.460;9.240;2023-04-24T00:20:44;15.60;99.90
22852;DHT22;11592;45.460;9.240;2023-04-24T00:23:10;15.80;99.90
22852;DHT22;11592;45.460;9.240;2023-04-24T00:25:37;15.80;99.90
22852;DHT22;11592;45.460;9.240;2023-04-24T00:28:04;15.80;99.90
22852;DHT22;11592;45.460;9.240;2023-04-24T00:30:31;15.90;99.90
22852;DHT22;11592;45.460;9.240;2023-04-24T00:32:58;15.80;99.90
22852;DHT22;11592;45.460;9.240;2023-04-24T00:35:25;15.80;99.90
22852;DHT22;11592;45.460;9.240;2023-04-24T00:37:52;15.80;99.90
22852;DHT22;11592;45.460;9.240;2023-04-24T00:40:18;15.90;99.90
22852;DHT22;11592;45.460;9.240;2023-04-24T00:42:45;15.90;99.90
22852;DHT22;11592;45.460;9.240;2023-04-24T00:45:12;15.80;99.90
22852;DHT22;11592;45.460;9.240;2023-04-24T00:47:41;15.80;99.90
22852;DHT22;11592;45.460;9.240;2023-04-24T00:50:08;15.70;99.90
22852;DHT22;11592;45.460;9.240;2023-04-24T00:52:35;15.70;99.90
22852;DHT22;11592;45.460;9.240;2023-04-24T00:55:04;15.80;99.90
22852;DHT22;11592;45.460;9.240;2023-04-24T00:57:32;15.70;99.90
22852;DHT22;11592;45.460;9.240;2023-04-24T00:59:59;15.70;99.90
22852;DHT22;11592;45.460;9.240;2023-04-24T01:02:25;15.60;99.90
22852;DHT22;11592;45.460;9.240;2023-04-24T01:04:53;15.50;99.90
22852;DHT22;11592;45.460;9.240;2023-04-24T01:07:20;15.60;99.90
22852;DHT22;11592;45.460;9.240;2023-04-24T01:09:48;15.50;99.90
22852;DHT22;11592;45.460;9.240;2023-04-24T01:12:18;15.60;99.90
22852;DHT22;11592;45.460;9.240;2023-04-24T01:14:45;15.50;99.90
22852;DHT22;11592;45.460;9.240;2023-04-24T01:17:12;15.60;99.90
22852;DHT22;11592;45.460;9.240;2023-04-24T01:19:39;15.60;99.90
22852;DHT22;11592;45.460;9.240;2023-04-24T01:22:11;15.60;99.90
22852;DHT22;11592;45.460;9.240;2023-04-24T01:24:39;15.50;99.90
22852;DHT22;11592;45.460;9.240;2023-04-24T01:27:08;15.40;99.90
22852;DHT22;11592;45.460;9.240;2023-04-24T01:29:35;15.50;99.90
22852;DHT22;11592;45.460;9.240;2023-04-24T01:32:04;15.50;99.90
22852;DHT22;11592;45.460;9.240;2023-04-24T01:34:31;15.40;99.90
22852;DHT22;11592;45.460;9.240;2023-04-24T01:36:58;15.40;99.90
22852;DHT22;11592;45.460;9.240;2023-04-24T01:39:25;15.50;99.90
22852;DHT22;11592;45.460;9.240;2023-04-24T01:41:55;15.50;99.90
22852;DHT22;11592;45.460;9.240;2023-04-24T01:44:23;15.40;99.90
22852;DHT22;11592;45.460;9.240;2023-04-24T01:46:50;15.40;99.90
22852;DHT22;11592;45.460;9.240;2023-04-24T01:49:17;15.40;99.90
22852;DHT22;11592;45.460;9.240;2023-04-24T01:51:44;15.40;99.90
22852;DHT22;11592;45.460;9.240;2023-04-24T01:54:11;15.40;99.90
22852;DHT22;11592;45.460;9.240;2023-04-24T01:56:42;15.50;99.90
22852;DHT22;11592;45.460;9.240;2023-04-24T01:59:10;15.30;99.90
22852;DHT22;11592;45.460;9.240;2023-04-24T02:01:38;15.40;99.90
22852;DHT22;11592;45.460;9.240;2023-04-24T02:04:06;15.40;99.90
22852;DHT22;11592;45.460;9.240;2023-04-24T02:06:34;15.50;99.90
22852;DHT22;11592;45.460;9.240;2023-04-24T02:09:02;15.50;99.90
22852;DHT22;11592;45.460;9.240;2023-04-24T02:11:30;15.30;99.90
22852;DHT22;11592;45.460;9.240;2023-04-24T02:13:57;15.30;99.90
22852;DHT22;11592;45.460;9.240;2023-04-24T02:16:24;15.30;99.90
22852;DHT22;11592;45.460;9.240;2023-04-24T02:18:51;15.20;99.90
22852;DHT22;11592;45.460;9.240;2023-04-24T02:21:18;15.30;99.90
22852;DHT22;11592;45.460;9.240;2023-04-24T02:23:45;15.30;99.90
22852;DHT22;11592;45.460;9.240;2023-04-24T02:26:11;15.30;99.90
22852;DHT22;11592;45.460;9.240;2023-04-24T02:28:38;15.40;99.90
22852;DHT22;11592;45.460;9.240;2023-04-24T02:31:05;15.40;99.90
22852;DHT22;11592;45.460;9.240;2023-04-24T02:33:33;15.40;99.90
22852;DHT22;11592;45.460;9.240;2023-04-24T02:35:59;15.40;99.90
22852;DHT22;11592;45.460;9.240;2023-04-24T02:38:26;15.40;99.90
22852;DHT22;11592;45.460;9.240;2023-04-24T02:40:53;15.40;99.90
22852;DHT22;11592;45.460;9.240;2023-04-24T02:43:20;15.30;99.90
22852;DHT22;11592;45.460;9.240;2023-04-24T02:45:47;15.30;99.90
22852;DHT22;11592;45.460;9.240;2023-04-24T02:48:14;15.30;99.90
22852;DHT22;11592;45.460;9.240;2023-04-24T02:50:41;15.20;99.90
22852;DHT22;11592;45.460;9.240;2023-04-24T02:53:08;15.20;99.90
22852;DHT22;11592;45.460;9.240;2023-04-24T02:55:35;15.10;99.90
22852;DHT22;11592;45.460;9.240;2023-04-24T02:58:02;15.10;99.90
22852;DHT22;11592;45.460;9.240;2023-04-24T03:00:29;15.10;99.90
22852;DHT22;11592;45.460;9.240;2023-04-24T03:02:56;15.00;99.90
22852;DHT22;11592;45.460;9.240;2023-04-24T03:05:23;15.00;99.90
22852;DHT22;11592;45.460;9.240;2023-04-24T03:07:50;14.90;99.90
22852;DHT22;11592;45.460;9.240;2023-04-24T03:10:19;14.80;99.90
22852;DHT22;11592;45.460;9.240;2023-04-24T03:12:46;14.90;99.90
22852;DHT22;11592;45.460;9.240;2023-04-24T03:15:13;14.70;99.90
22852;DHT22;11592;45.460;9.240;2023-04-24T03:17:39;14.70;99.90
22852;DHT22;11592;45.460;9.240;2023-04-24T03:20:08;14.50;99.90
22852;DHT22;11592;45.460;9.240;2023-04-24T03:22:35;14.50;99.90
22852;DHT22;11592;45.460;9.240;2023-04-24T03:25:02;14.40;99.90
22852;DHT22;11592;45.460;9.240;2023-04-24T03:27:29;14.40;99.90
22852;DHT22;11592;45.460;9.240;2023-04-24T03:29:57;14.60;99.90
22852;DHT22;11592;45.460;9.240;2023-04-24T03:32:23;14.70;99.90
22852;DHT22;11592;45.460;9.240;2023-04-24T03:34:50;14.70;99.90
22852;DHT22;11592;45.460;9.240;2023-04-24T03:37:17;14.80;99.90
22852;DHT22;11592;45.460;9.240;2023-04-24T03:39:44;14.80;99.90
22852;DHT22;11592;45.460;9.240;2023-04-24T03:42:11;14.80;99.90
22852;DHT22;11592;45.460;9.240;2023-04-24T03:44:38;14.80;99.90
22852;DHT22;11592;45.460;9.240;2023-04-24T03:47:04;14.70;99.90
22852;DHT22;11592;45.460;9.240;2023-04-24T03:49:31;14.70;99.90
22852;DHT22;11592;45.460;9.240;2023-04-24T03:51:58;14.70;99.90
22852;DHT22;11592;45.460;9.240;2023-04-24T03:54:25;14.60;99.90
22852;DHT22;11592;45.460;9.240;2023-04-24T03:56:52;14.60;99.90
22852;DHT22;11592;45.460;9.240;2023-04-24T03:59:19;14.40;99.90
22852;DHT22;11592;45.460;9.240;2023-04-24T04:01:46;14.40;99.90
22852;DHT22;11592;45.460;9.240;2023-04-24T04:04:13;14.30;99.90
22852;DHT22;11592;45.460;9.240;2023-04-24T04:06:40;14.30;99.90
22852;DHT22;11592;45.460;9.240;2023-04-24T04:09:07;14.10;99.90
22852;DHT22;11592;45.460;9.240;2023-04-24T04:11:35;14.10;99.90
22852;DHT22;11592;45.460;9.240;2023-04-24T04:14:02;14.20;99.90
22852;DHT22;11592;45.460;9.240;2023-04-24T04:16:29;14.10;99.90
22852;DHT22;11592;45.460;9.240;2023-04-24T04:18:56;14.20;99.90
22852;DHT22;11592;45.460;9.240;2023-04-24T04:21:23;14.10;99.90
22852;DHT22;11592;45.460;9.240;2023-04-24T04:23:50;14.00;99.90
22852;DHT22;11592;45.460;9.240;2023-04-24T04:26:17;14.10;99.90
22852;DHT22;11592;45.460;9.240;2023-04-24T04:28:45;14.10;99.90
22852;DHT22;11592;45.460;9.240;2023-04-24T04:31:14;14.20;99.90
22852;DHT22;11592;45.460;9.240;2023-04-24T04:33:40;14.10;99.90
22852;DHT22;11592;45.460;9.240;2023-04-24T04:36:07;13.90;99.90
22852;DHT22;11592;45.460;9.240;2023-04-24T04:38:35;14.00;99.90
22852;DHT22;11592;45.460;9.240;2023-04-24T04:41:02;14.00;99.90
22852;DHT22;11592;45.460;9.240;2023-04-24T04:43:29;13.90;99.90
22852;DHT22;11592;45.460;9.240;2023-04-24T04:45:58;13.80;99.90
22852;DHT22;11592;45.460;9.240;2023-04-24T04:48:24;13.90;99.90
22852;DHT22;11592;45.460;9.240;2023-04-24T04:50:51;13.90;99.90
22852;DHT22;11592;45.460;9.240;2023-04-24T04:53:18;14.00;99.90
22852;DHT22;11592;45.460;9.240;2023-04-24T04:55:45;13.90;99.90
22852;DHT22;11592;45.460;9.240;2023-04-24T04:58:12;14.00;99.90
22852;DHT22;11592;45.460;9.240;2023-04-24T05:00:39;14.00;99.90
22852;DHT22;11592;45.460;9.240;2023-04-24T05:03:06;14.00;99.90
22852;DHT22;11592;45.460;9.240;2023-04-24T05:05:47;14.00;99.90
22852;DHT22;11592;45.460;9.240;2023-04-24T05:08:13;14.10;99.90
22852;DHT22;11592;45.460;9.240;2023-04-24T05:10:43;14.20;99.90
22852;DHT22;11592;45.460;9.240;2023-04-24T05:13:10;14.20;99.90
22852;DHT22;11592;45.460;9.240;2023-04-24T05:15:39;14.20;99.90
22852;DHT22;11592;45.460;9.240;2023-04-24T05:18:06;14.20;99.90
22852;DHT22;11592;45.460;9.240;2023-04-24T05:20:33;14.10;99.90
22852;DHT22;11592;45.460;9.240;2023-04-24T05:23:00;14.20;99.90
22852;DHT22;11592;45.460;9.240;2023-04-24T05:25:27;14.20;99.90
22852;DHT22;11592;45.460;9.240;2023-04-24T05:27:53;14.20;99.90
22852;DHT22;11592;45.460;9.240;2023-04-24T05:30:20;14.20;99.90
22852;DHT22;11592;45.460;9.240;2023-04-24T05:32:47;14.20;99.90
22852;DHT22;11592;45.460;9.240;2023-04-24T05:35:14;14.20;99.90
22852;DHT22;11592;45.460;9.240;2023-04-24T05:37:41;14.20;99.90
22852;DHT22;11592;45.460;9.240;2023-04-24T05:40:08;14.10;99.90
22852;DHT22;11592;45.460;9.240;2023-04-24T05:42:35;14.20;99.90
22852;DHT22;11592;45.460;9.240;2023-04-24T05:45:02;14.20;99.90
22852;DHT22;11592;45.460;9.240;2023-04-24T05:47:30;14.20;99.90
22852;DHT22;11592;45.460;9.240;2023-04-24T05:49:56;14.20;99.90
22852;DHT22;11592;45.460;9.240;2023-04-24T05:52:23;14.20;99.90
22852;DHT22;11592;45.460;9.240;2023-04-24T05:54:50;14.20;99.90
22852;DHT22;11592;45.460;9.240;2023-04-24T05:57:17;14.30;99.90
22852;DHT22;11592;45.460;9.240;2023-04-24T05:59:43;14.40;99.90
22852;DHT22;11592;45.460;9.240;2023-04-24T06:02:10;14.30;99.90
22852;DHT22;11592;45.460;9.240;2023-04-24T06:04:37;14.40;99.90
22852;DHT22;11592;45.460;9.240;2023-04-24T06:07:04;14.60;99.90
22852;DHT22;11592;45.460;9.240;2023-04-24T06:09:31;14.60;99.90
22852;DHT22;11592;45.460;9.240;2023-04-24T06:11:58;14.60;99.90
22852;DHT22;11592;45.460;9.240;2023-04-24T06:14:26;14.70;99.90
22852;DHT22;11592;45.460;9.240;2023-04-24T06:16:53;14.80;99.90
22852;DHT22;11592;45.460;9.240;2023-04-24T06:19:20;14.90;99.90
22852;DHT22;11592;45.460;9.240;2023-04-24T06:21:47;14.90;99.90
22852;DHT22;11592;45.460;9.240;2023-04-24T06:24:14;15.00;99.90
22852;DHT22;11592;45.460;9.240;2023-04-24T06:26:42;15.10;99.90
22852;DHT22;11592;45.460;9.240;2023-04-24T06:29:09;15.10;99.90
22852;DHT22;11592;45.460;9.240;2023-04-24T06:31:36;15.10;99.90
22852;DHT22;11592;45.460;9.240;2023-04-24T06:34:04;15.10;99.90
22852;DHT22;11592;45.460;9.240;2023-04-24T06:36:30;15.10;99.90
22852;DHT22;11592;45.460;9.240;2023-04-24T06:38:57;15.10;99.90
22852;DHT22;11592;45.460;9.240;2023-04-24T06:41:24;15.20;99.90
22852;DHT22;11592;45.460;9.240;2023-04-24T06:43:51;15.30;99.90
22852;DHT22;11592;45.460;9.240;2023-04-24T06:46:18;15.30;99.90
22852;DHT22;11592;45.460;9.240;2023-04-24T06:48:45;15.40;99.90
22852;DHT22;11592;45.460;9.240;2023-04-24T06:51:12;15.30;99.90
22852;DHT22;11592;45.460;9.240;2023-04-24T06:53:38;15.40;99.90
22852;DHT22;11592;45.460;9.240;2023-04-24T06:56:05;15.40;99.90
22852;DHT22;11592;45.460;9.240;2023-04-24T06:58:32;15.40;99.90
22852;DHT22;11592;45.460;9.240;2023-04-24T07:00:59;15.50;99.90
22852;DHT22;11592;45.460;9.240;2023-04-24T07:03:26;15.60;99.90
22852;DHT22;11592;45.460;9.240;2023-04-24T07:05:53;15.70;99.90
22852;DHT22;11592;45.460;9.240;2023-04-24T07:08:21;15.80;99.90
22852;DHT22;11592;45.460;9.240;2023-04-24T07:10:49;15.90;99.90
22852;DHT22;11592;45.460;9.240;2023-04-24T07:13:17;15.90;99.90
22852;DHT22;11592;45.460;9.240;2023-04-24T07:15:44;15.90;99.90
22852;DHT22;11592;45.460;9.240;2023-04-24T07:18:10;15.90;99.90
22852;DHT22;11592;45.460;9.240;2023-04-24T07:20:37;15.90;99.90
22852;DHT22;11592;45.460;9.240;2023-04-24T07:23:04;15.90;99.90
22852;DHT22;11592;45.460;9.240;2023-04-24T07:25:31;16.00;99.90
22852;DHT22;11592;45.460;9.240;2023-04-24T07:27:58;16.10;99.90
22852;DHT22;11592;45.460;9.240;2023-04-24T07:30:25;16.20;99.90
22852;DHT22;11592;45.460;9.240;2023-04-24T07:32:52;16.30;99.90
22852;DHT22;11592;45.460;9.240;2023-04-24T07:35:19;16.30;99.90
22852;DHT22;11592;45.460;9.240;2023-04-24T07:37:46;16.40;99.90
22852;DHT22;11592;45.460;9.240;2023-04-24T07:40:13;16.30;99.90
22852;DHT22;11592;45.460;9.240;2023-04-24T07:42:40;16.30;99.90
22852;DHT22;11592;45.460;9.240;2023-04-24T07:45:08;16.20;99.90
22852;DHT22;11592;45.460;9.240;2023-04-24T07:47:34;16.00;99.90
22852;DHT22;11592;45.460;9.240;2023-04-24T07:50:03;15.90;99.90
22852;DHT22;11592;45.460;9.240;2023-04-24T07:52:30;16.00;99.90
22852;DHT22;11592;45.460;9.240;2023-04-24T07:54:57;15.90;99.90
22852;DHT22;11592;45.460;9.240;2023-04-24T07:57:25;16.10;99.90
22852;DHT22;11592;45.460;9.240;2023-04-24T07:59:52;16.20;99.90
22852;DHT22;11592;45.460;9.240;2023-04-24T08:02:19;15.90;99.90
22852;DHT22;11592;45.460;9.240;2023-04-24T08:04:46;16.00;99.90
22852;DHT22;11592;45.460;9.240;2023-04-24T08:07:13;16.20;99.90
22852;DHT22;11592;45.460;9.240;2023-04-24T08:09:40;16.40;99.90
22852;DHT22;11592;45.460;9.240;2023-04-24T08:12:07;16.70;99.90
22852;DHT22;11592;45.460;9.240;2023-04-24T08:14:34;16.70;99.90
22852;DHT22;11592;45.460;9.240;2023-04-24T08:17:01;16.90;99.90
22852;DHT22;11592;45.460;9.240;2023-04-24T08:19:29;16.90;99.90
22852;DHT22;11592;45.460;9.240;2023-04-24T08:21:56;17.00;99.90
22852;DHT22;11592;45.460;9.240;2023-04-24T08:24:23;17.00;99.90
22852;DHT22;11592;45.460;9.240;2023-04-24T08:26:50;17.10;99.90
22852;DHT22;11592;45.460;9.240;2023-04-24T08:29:18;17.10;99.90
22852;DHT22;11592;45.460;9.240;2023-04-24T08:31:45;17.20;99.90
22852;DHT22;11592;45.460;9.240;2023-04-24T08:34:11;17.40;99.90
22852;DHT22;11592;45.460;9.240;2023-04-24T08:36:38;17.50;99.90
22852;DHT22;11592;45.460;9.240;2023-04-24T08:39:13;17.50;99.90
22852;DHT22;11592;45.460;9.240;2023-04-24T08:41:42;17.50;99.90
22852;DHT22;11592;45.460;9.240;2023-04-24T08:44:12;17.50;99.90
22852;DHT22;11592;45.460;9.240;2023-04-24T08:46:45;17.60;99.90
22852;DHT22;11592;45.460;9.240;2023-04-24T08:49:15;17.70;99.90
22852;DHT22;11592;45.460;9.240;2023-04-24T08:51:45;17.80;99.90
22852;DHT22;11592;45.460;9.240;2023-04-24T08:54:13;18.00;99.90
22852;DHT22;11592;45.460;9.240;2023-04-24T08:56:44;18.00;99.90
22852;DHT22;11592;45.460;9.240;2023-04-24T08:59:11;18.10;99.90
22852;DHT22;11592;45.460;9.240;2023-04-24T09:01:40;18.00;99.90
22852;DHT22;11592;45.460;9.240;2023-04-24T09:04:09;18.00;99.90
22852;DHT22;11592;45.460;9.240;2023-04-24T09:06:40;18.00;99.90
22852;DHT22;11592;45.460;9.240;2023-04-24T09:09:08;18.10;99.90
22852;DHT22;11592;45.460;9.240;2023-04-24T09:11:36;18.20;99.90
22852;DHT22;11592;45.460;9.240;2023-04-24T09:14:04;18.30;99.90
22852;DHT22;11592;45.460;9.240;2023-04-24T09:16:31;18.10;99.90
22852;DHT22;11592;45.460;9.240;2023-04-24T09:19:02;18.00;99.90
22852;DHT22;11592;45.460;9.240;2023-04-24T09:21:33;17.80;99.90
22852;DHT22;11592;45.460;9.240;2023-04-24T09:24:06;18.00;99.90
22852;DHT22;11592;45.460;9.240;2023-04-24T09:26:35;18.20;99.90
22852;DHT22;11592;45.460;9.240;2023-04-24T09:29:04;18.30;99.90
22852;DHT22;11592;45.460;9.240;2023-04-24T09:31:32;18.60;99.90
22852;DHT22;11592;45.460;9.240;2023-04-24T09:34:04;18.60;99.90
22852;DHT22;11592;45.460;9.240;2023-04-24T09:36:35;18.60;99.90
22852;DHT22;11592;45.460;9.240;2023-04-24T09:39:09;18.50;99.90
22852;DHT22;11592;45.460;9.240;2023-04-24T09:41:52;18.60;99.90
22852;DHT22;11592;45.460;9.240;2023-04-24T09:44:24;18.50;99.90
22852;DHT22;11592;45.460;9.240;2023-04-24T09:46:56;18.50;99.90
22852;DHT22;11592;45.460;9.240;2023-04-24T09:49:24;18.50;99.90
22852;DHT22;11592;45.460;9.240;2023-04-24T09:51:51;18.40;99.90
22852;DHT22;11592;45.460;9.240;2023-04-24T09:54:20;18.40;99.90
22852;DHT22;11592;45.460;9.240;2023-04-24T09:56:49;18.50;99.90
22852;DHT22;11592;45.460;9.240;2023-04-24T09:59:18;18.60;99.90
22852;DHT22;11592;45.460;9.240;2023-04-24T10:01:45;18.70;99.90
22852;DHT22;11592;45.460;9.240;2023-04-24T10:04:20;18.70;99.90
22852;DHT22;11592;45.460;9.240;2023-04-24T10:06:48;18.90;99.90
22852;DHT22;11592;45.460;9.240;2023-04-24T10:09:17;19.10;99.90
22852;DHT22;11592;45.460;9.240;2023-04-24T10:11:46;19.10;99.90
22852;DHT22;11592;45.460;9.240;2023-04-24T10:14:18;19.20;99.90
22852;DHT22;11592;45.460;9.240;2023-04-24T10:16:45;19.30;99.90
22852;DHT22;11592;45.460;9.240;2023-04-24T10:19:15;19.50;99.90
22852;DHT22;11592;45.460;9.240;2023-04-24T10:21:43;19.60;99.90
22852;DHT22;11592;45.460;9.240;2023-04-24T10:24:17;19.80;99.90
22852;DHT22;11592;45.460;9.240;2023-04-24T10:26:45;19.80;99.90
22852;DHT22;11592;45.460;9.240;2023-04-24T10:29:18;19.90;99.90
22852;DHT22;11592;45.460;9.240;2023-04-24T10:31:46;20.00;99.90
22852;DHT22;11592;45.460;9.240;2023-04-24T10:34:15;20.10;99.90
22852;DHT22;11592;45.460;9.240;2023-04-24T10:36:46;20.30;99.90
22852;DHT22;11592;45.460;9.240;2023-04-24T10:39:14;20.60;99.90
22852;DHT22;11592;45.460;9.240;2023-04-24T10:41:42;20.50;99.90
22852;DHT22;11592;45.460;9.240;2023-04-24T10:44:11;20.60;99.90
22852;DHT22;11592;45.460;9.240;2023-04-24T10:46:39;20.80;99.90
22852;DHT22;11592;45.460;9.240;2023-04-24T10:49:09;21.10;99.90
22852;DHT22;11592;45.460;9.240;2023-04-24T10:51:50;21.10;99.90
22852;DHT22;11592;45.460;9.240;2023-04-24T10:54:25;21.10;99.90
22852;DHT22;11592;45.460;9.240;2023-04-24T10:56:52;21.20;99.90
22852;DHT22;11592;45.460;9.240;2023-04-24T10:59:35;21.30;99.90
22852;DHT22;11592;45.460;9.240;2023-04-24T11:02:01;21.00;99.90
22852;DHT22;11592;45.460;9.240;2023-04-24T11:04:30;21.30;99.90
22852;DHT22;11592;45.460;9.240;2023-04-24T11:06:58;21.50;99.90
22852;DHT22;11592;45.460;9.240;2023-04-24T11:09:30;21.50;99.90
22852;DHT22;11592;45.460;9.240;2023-04-24T11:12:08;22.00;99.90
22852;DHT22;11592;45.460;9.240;2023-04-24T11:17:37;22.10;99.90
22852;DHT22;11592;45.460;9.240;2023-04-24T11:20:09;22.20;99.90
22852;DHT22;11592;45.460;9.240;2023-04-24T11:22:54;22.10;99.90
22852;DHT22;11592;45.460;9.240;2023-04-24T11:25:22;22.30;99.90
22852;DHT22;11592;45.460;9.240;2023-04-24T11:27:49;22.40;99.80
22852;DHT22;11592;45.460;9.240;2023-04-24T11:30:18;22.60;99.10
22852;DHT22;11592;45.460;9.240;2023-04-24T11:32:50;22.40;98.30
22852;DHT22;11592;45.460;9.240;2023-04-24T11:35:20;22.50;99.40
22852;DHT22;11592;45.460;9.240;2023-04-24T11:37:53;22.90;99.90
22852;DHT22;11592;45.460;9.240;2023-04-24T11:40:40;23.10;98.70
22852;DHT22;11592;45.460;9.240;2023-04-24T11:43:09;23.20;98.30
22852;DHT22;11592;45.460;9.240;2023-04-24T11:45:36;23.10;99.00
22852;DHT22;11592;45.460;9.240;2023-04-24T11:48:03;23.00;98.50
22852;DHT22;11592;45.460;9.240;2023-04-24T11:50:30;23.20;98.30
22852;DHT22;11592;45.460;9.240;2023-04-24T11:52:57;23.50;98.20
22852;DHT22;11592;45.460;9.240;2023-04-24T11:55:26;23.50;96.70
22852;DHT22;11592;45.460;9.240;2023-04-24T11:57:58;23.50;97.40
22852;DHT22;11592;45.460;9.240;2023-04-24T12:00:30;23.70;98.10
22852;DHT22;11592;45.460;9.240;2023-04-24T12:03:08;24.10;97.40
22852;DHT22;11592;45.460;9.240;2023-04-24T12:05:36;24.20;96.20
22852;DHT22;11592;45.460;9.240;2023-04-24T12:08:03;24.30;95.90
22852;DHT22;11592;45.460;9.240;2023-04-24T12:10:32;24.20;97.10
22852;DHT22;11592;45.460;9.240;2023-04-24T12:12:59;24.20;97.10
22852;DHT22;11592;45.460;9.240;2023-04-24T12:15:27;24.10;96.40
22852;DHT22;11592;45.460;9.240;2023-04-24T12:17:55;24.50;95.40
22852;DHT22;11592;45.460;9.240;2023-04-24T12:20:29;24.50;95.90
22852;DHT22;11592;45.460;9.240;2023-04-24T12:22:57;24.90;94.80
22852;DHT22;11592;45.460;9.240;2023-04-24T12:25:26;25.40;94.50
22852;DHT22;11592;45.460;9.240;2023-04-24T12:27:55;25.50;94.00
22852;DHT22;11592;45.460;9.240;2023-04-24T12:30:26;25.60;93.60
22852;DHT22;11592;45.460;9.240;2023-04-24T12:32:57;26.10;93.20
22852;DHT22;11592;45.460;9.240;2023-04-24T12:35:29;26.20;92.90
22852;DHT22;11592;45.460;9.240;2023-04-24T12:37:56;26.20;90.70
22852;DHT22;11592;45.460;9.240;2023-04-24T12:40:31;25.60;90.40
22852;DHT22;11592;45.460;9.240;2023-04-24T12:42:58;25.80;88.80
22852;DHT22;11592;45.460;9.240;2023-04-24T12:45:25;26.00;90.40
22852;DHT22;11592;45.460;9.240;2023-04-24T12:47:54;26.20;91.10
22852;DHT22;11592;45.460;9.240;2023-04-24T12:50:21;26.40;91.50
22852;DHT22;11592;45.460;9.240;2023-04-24T12:52:48;26.90;81.60
22852;DHT22;11592;45.460;9.240;2023-04-24T12:55:15;27.10;85.60
22852;DHT22;11592;45.460;9.240;2023-04-24T12:57:41;27.30;81.40
22852;DHT22;11592;45.460;9.240;2023-04-24T13:00:09;27.40;84.10
22852;DHT22;11592;45.460;9.240;2023-04-24T13:02:36;27.80;87.30
22852;DHT22;11592;45.460;9.240;2023-04-24T13:05:04;28.40;86.20
22852;DHT22;11592;45.460;9.240;2023-04-24T13:07:31;28.40;81.50
22852;DHT22;11592;45.460;9.240;2023-04-24T13:09:57;28.70;79.70
22852;DHT22;11592;45.460;9.240;2023-04-24T13:12:25;29.60;76.00
22852;DHT22;11592;45.460;9.240;2023-04-24T13:14:53;30.00;70.20
22852;DHT22;11592;45.460;9.240;2023-04-24T13:17:20;30.80;68.00
22852;DHT22;11592;45.460;9.240;2023-04-24T13:19:50;31.90;63.00
22852;DHT22;11592;45.460;9.240;2023-04-24T13:22:17;32.50;62.50
22852;DHT22;11592;45.460;9.240;2023-04-24T13:24:47;33.30;60.30
22852;DHT22;11592;45.460;9.240;2023-04-24T13:27:15;34.50;56.60
22852;DHT22;11592;45.460;9.240;2023-04-24T13:29:42;34.70;53.90
22852;DHT22;11592;45.460;9.240;2023-04-24T13:32:09;35.50;53.10
22852;DHT22;11592;45.460;9.240;2023-04-24T13:34:36;35.20;48.10
22852;DHT22;11592;45.460;9.240;2023-04-24T13:37:04;35.00;49.70
22852;DHT22;11592;45.460;9.240;2023-04-24T13:39:31;35.90;48.70
22852;DHT22;11592;45.460;9.240;2023-04-24T13:41:58;36.50;46.60
22852;DHT22;11592;45.460;9.240;2023-04-24T13:44:26;35.90;46.30
22852;DHT22;11592;45.460;9.240;2023-04-24T13:46:54;36.00;40.10
22852;DHT22;11592;45.460;9.240;2023-04-24T13:49:24;36.30;42.90
22852;DHT22;11592;45.460;9.240;2023-04-24T13:51:54;36.40;36.80
22852;DHT22;11592;45.460;9.240;2023-04-24T13:54:21;36.50;31.80
22852;DHT22;11592;45.460;9.240;2023-04-24T13:56:50;35.90;33.80
22852;DHT22;11592;45.460;9.240;2023-04-24T13:59:17;35.90;35.80
22852;DHT22;11592;45.460;9.240;2023-04-24T14:01:44;35.30;34.00
22852;DHT22;11592;45.460;9.240;2023-04-24T14:04:11;35.50;35.30
22852;DHT22;11592;45.460;9.240;2023-04-24T14:06:39;35.10;34.90
22852;DHT22;11592;45.460;9.240;2023-04-24T14:09:06;34.70;31.00
22852;DHT22;11592;45.460;9.240;2023-04-24T14:11:34;32.70;34.50
22852;DHT22;11592;45.460;9.240;2023-04-24T14:14:00;32.40;35.90
22852;DHT22;11592;45.460;9.240;2023-04-24T14:16:28;33.10;35.10
22852;DHT22;11592;45.460;9.240;2023-04-24T14:18:55;33.20;34.70
22852;DHT22;11592;45.460;9.240;2023-04-24T14:21:22;32.60;33.80
22852;DHT22;11592;45.460;9.240;2023-04-24T14:23:49;31.90;35.20
22852;DHT22;11592;45.460;9.240;2023-04-24T14:26:16;31.40;36.10
22852;DHT22;11592;45.460;9.240;2023-04-24T14:28:43;32.90;36.80
22852;DHT22;11592;45.460;9.240;2023-04-24T14:31:10;33.80;34.60
22852;DHT22;11592;45.460;9.240;2023-04-24T14:33:37;33.50;33.50
22852;DHT22;11592;45.460;9.240;2023-04-24T14:36:03;32.80;33.20
22852;DHT22;11592;45.460;9.240;2023-04-24T14:38:32;33.10;33.20
22852;DHT22;11592;45.460;9.240;2023-04-24T14:40:59;33.20;34.80
22852;DHT22;11592;45.460;9.240;2023-04-24T14:43:28;33.20;34.80
22852;DHT22;11592;45.460;9.240;2023-04-24T14:45:55;32.50;36.00
22852;DHT22;11592;45.460;9.240;2023-04-24T14:48:22;32.20;36.00
22852;DHT22;11592;45.460;9.240;2023-04-24T14:50:48;32.00;37.00
22852;DHT22;11592;45.460;9.240;2023-04-24T14:53:15;32.00;37.70
22852;DHT22;11592;45.460;9.240;2023-04-24T14:55:42;31.80;36.00
22852;DHT22;11592;45.460;9.240;2023-04-24T14:58:09;31.20;37.30
22852;DHT22;11592;45.460;9.240;2023-04-24T15:00:36;29.80;37.80
22852;DHT22;11592;45.460;9.240;2023-04-24T15:03:03;29.50;39.50
22852;DHT22;11592;45.460;9.240;2023-04-24T15:05:31;30.00;38.70
22852;DHT22;11592;45.460;9.240;2023-04-24T15:07:58;30.30;36.50
22852;DHT22;11592;45.460;9.240;2023-04-24T15:10:25;30.30;38.20
22852;DHT22;11592;45.460;9.240;2023-04-24T15:12:52;31.00;35.80
22852;DHT22;11592;45.460;9.240;2023-04-24T15:15:18;31.60;35.50
22852;DHT22;11592;45.460;9.240;2023-04-24T15:17:45;32.20;35.20
22852;DHT22;11592;45.460;9.240;2023-04-24T15:20:12;31.30;36.50
22852;DHT22;11592;45.460;9.240;2023-04-24T15:22:39;31.60;37.10
22852;DHT22;11592;45.460;9.240;2023-04-24T15:25:06;32.50;35.80
22852;DHT22;11592;45.460;9.240;2023-04-24T15:27:45;32.50;34.40
22852;DHT22;11592;45.460;9.240;2023-04-24T15:30:13;32.50;34.30
22852;DHT22;11592;45.460;9.240;2023-04-24T15:32:40;33.20;35.60
22852;DHT22;11592;45.460;9.240;2023-04-24T15:35:09;33.00;33.90
22852;DHT22;11592;45.460;9.240;2023-04-24T15:37:37;32.10;33.80